Time;durP1;ratioP1;P1;durP2;ratioP2;P2;SDS_P1;SDS_P2;PMS_P1;PMS_P2;Temp;Humidity;BMP_temperature;BMP_pressure;BME280_temperature;BME280_humidity;BME280_pressure;Samples;Min_cycle;Max_cycle;Signal;HPM_P1;HPM_P2
2023/03/30 00:02:09;;;;;;;;;;;22.30;81.10;;;;;;5134919;27;19908;-60
2023/03/30 00:04:36;;;;;;;;;;;22.40;80.90;;;;;;5115868;27;19907;-60
2023/03/30 00:07:04;;;;;;;;;;;22.30;80.90;;;;;;5135199;27;19908;-61
2023/03/30 00:09:31;;;;;;;;;;;22.30;81.00;;;;;;5116693;28;19908;-61
2023/03/30 00:12:02;;;;;;;;;;;22.20;80.80;;;;;;5135509;28;19960;-61
2023/03/30 00:14:30;;;;;;;;;;;22.10;81.00;;;;;;5134882;28;19907;-61
2023/03/30 00:16:55;;;;;;;;;;;22.00;81.30;;;;;;5115707;28;19919;-61
2023/03/30 00:19:21;;;;;;;;;;;22.00;81.50;;;;;;5116590;28;19916;-61
2023/03/30 00:21:48;;;;;;;;;;;21.90;81.60;;;;;;5137165;27;20354;-61
2023/03/30 00:24:14;;;;;;;;;;;21.80;82.00;;;;;;5136943;27;19923;-61
2023/03/30 00:26:39;;;;;;;;;;;21.70;82.40;;;;;;5119943;27;19915;-60
2023/03/30 00:29:05;;;;;;;;;;;21.70;82.70;;;;;;5139219;27;19915;-61
2023/03/30 00:31:31;;;;;;;;;;;21.60;82.70;;;;;;5139133;27;20023;-60
2023/03/30 00:33:56;;;;;;;;;;;21.60;82.90;;;;;;5138155;27;19980;-60
2023/03/30 00:36:21;;;;;;;;;;;21.60;82.90;;;;;;5120639;27;19907;-60
2023/03/30 00:38:47;;;;;;;;;;;21.70;82.80;;;;;;5138670;27;20003;-60
2023/03/30 00:41:12;;;;;;;;;;;21.80;82.60;;;;;;5120271;27;20328;-60
2023/03/30 00:43:54;;;;;;;;;;;22.00;82.20;;;;;;5138030;27;20006;-60
2023/03/30 00:46:21;;;;;;;;;;;22.20;81.70;;;;;;5138857;27;19999;-60
2023/03/30 00:48:47;;;;;;;;;;;22.30;81.40;;;;;;5138713;27;19908;-60
2023/03/30 00:51:13;;;;;;;;;;;22.30;81.10;;;;;;5138504;27;19976;-60
2023/03/30 00:53:44;;;;;;;;;;;22.20;81.60;;;;;;5138464;27;19907;-60
2023/03/30 00:56:12;;;;;;;;;;;22.20;81.20;;;;;;5138899;27;19912;-60
2023/03/30 00:58:38;;;;;;;;;;;22.10;81.20;;;;;;5138599;27;19916;-60
2023/03/30 01:01:06;;;;;;;;;;;22.00;81.50;;;;;;5138907;27;19911;-60
2023/03/30 01:03:44;;;;;;;;;;;22.00;81.60;;;;;;5138579;27;19998;-60
2023/03/30 01:06:10;;;;;;;;;;;21.90;81.60;;;;;;5119172;27;19911;-60
2023/03/30 01:08:36;;;;;;;;;;;21.80;82.00;;;;;;5138217;27;20370;-60
2023/03/30 01:11:02;;;;;;;;;;;21.80;82.20;;;;;;5138220;27;19907;-60
2023/03/30 01:13:28;;;;;;;;;;;21.70;82.30;;;;;;5119980;27;19911;-60
2023/03/30 01:16:06;;;;;;;;;;;21.70;82.50;;;;;;5118987;27;19922;-60
2023/03/30 01:18:39;;;;;;;;;;;21.60;82.70;;;;;;5137986;27;20437;-60
2023/03/30 01:21:23;;;;;;;;;;;21.50;83.00;;;;;;5138033;27;19961;-60
2023/03/30 01:24:09;;;;;;;;;;;21.50;83.20;;;;;;5136577;27;20281;-59
2023/03/30 01:26:38;;;;;;;;;;;21.50;83.30;;;;;;5138052;27;19957;-60
2023/03/30 01:29:03;;;;;;;;;;;21.60;83.20;;;;;;5138306;27;19911;-59
2023/03/30 01:31:47;;;;;;;;;;;21.80;82.90;;;;;;5137708;27;20247;-60
2023/03/30 01:34:16;;;;;;;;;;;22.00;82.40;;;;;;5135738;27;19915;-60
2023/03/30 01:36:47;;;;;;;;;;;22.10;81.90;;;;;;5136913;27;19940;-60
2023/03/30 01:39:35;;;;;;;;;;;22.20;81.50;;;;;;5137496;27;19919;-60
2023/03/30 01:42:15;;;;;;;;;;;22.20;81.30;;;;;;5136102;27;20021;-60
2023/03/30 01:44:45;;;;;;;;;;;22.10;81.10;;;;;;5117251;28;19912;-60
2023/03/30 01:47:10;;;;;;;;;;;22.10;81.20;;;;;;5117062;28;19908;-59
2023/03/30 01:49:54;;;;;;;;;;;22.00;81.10;;;;;;5117084;28;19960;-60
2023/03/30 01:52:52;;;;;;;;;;;21.90;81.90;;;;;;5117593;27;19959;-59
2023/03/30 01:55:20;;;;;;;;;;;21.80;82.30;;;;;;5091800;27;19911;-60
2023/03/30 01:57:54;;;;;;;;;;;21.80;82.40;;;;;;5137119;27;20315;-60
2023/03/30 02:00:21;;;;;;;;;;;21.70;82.70;;;;;;5137489;27;19908;-60
2023/03/30 02:02:48;;;;;;;;;;;21.70;82.80;;;;;;5118139;27;19915;-60
2023/03/30 02:05:16;;;;;;;;;;;21.60;82.90;;;;;;5137015;27;20438;-60
2023/03/30 02:07:44;;;;;;;;;;;21.60;83.10;;;;;;5118968;27;19914;-60
2023/03/30 02:10:11;;;;;;;;;;;21.50;83.40;;;;;;5137041;27;19953;-59
2023/03/30 02:12:37;;;;;;;;;;;21.50;84.10;;;;;;5137291;27;19911;-60
2023/03/30 02:15:06;;;;;;;;;;;21.50;83.70;;;;;;5136305;27;20349;-59
2023/03/30 02:17:32;;;;;;;;;;;21.60;83.60;;;;;;5136845;27;19911;-60
2023/03/30 02:19:58;;;;;;;;;;;21.70;83.30;;;;;;5137007;27;20021;-60
2023/03/30 02:22:25;;;;;;;;;;;21.80;82.80;;;;;;5117362;27;20401;-60
2023/03/30 02:24:53;;;;;;;;;;;22.00;82.40;;;;;;5136968;27;20007;-60
2023/03/30 02:27:18;;;;;;;;;;;22.10;81.90;;;;;;5136907;27;20262;-60
2023/03/30 02:29:44;;;;;;;;;;;22.10;81.80;;;;;;5118491;27;19911;-59
2023/03/30 02:32:24;;;;;;;;;;;22.10;81.60;;;;;;5136847;27;19908;-60
2023/03/30 02:34:52;;;;;;;;;;;22.00;81.40;;;;;;5136073;27;19908;-59
2023/03/30 02:37:24;;;;;;;;;;;22.00;81.40;;;;;;5136412;27;20393;-60
2023/03/30 02:40:13;;;;;;;;;;;21.90;81.50;;;;;;5136318;27;19962;-59
2023/03/30 02:42:45;;;;;;;;;;;21.90;81.80;;;;;;5136364;27;19919;-60
2023/03/30 02:45:31;;;;;;;;;;;21.80;82.20;;;;;;5135007;27;20369;-60
2023/03/30 02:48:04;;;;;;;;;;;21.70;82.40;;;;;;5136798;27;19912;-60
2023/03/30 02:50:30;;;;;;;;;;;21.70;82.80;;;;;;5136496;27;19915;-60
2023/03/30 02:52:55;;;;;;;;;;;21.60;82.80;;;;;;5135449;27;19911;-60
2023/03/30 02:55:28;;;;;;;;;;;21.60;82.70;;;;;;5133901;27;19911;-60
2023/03/30 02:57:53;;;;;;;;;;;21.50;83.00;;;;;;5136256;27;19912;-59
2023/03/30 03:00:24;;;;;;;;;;;21.50;83.20;;;;;;5137298;27;19926;-60
2023/03/30 03:02:59;;;;;;;;;;;21.50;83.50;;;;;;5146980;27;20247;-60
2023/03/30 03:05:25;;;;;;;;;;;21.50;83.60;;;;;;5135391;27;19911;-59
2023/03/30 03:07:51;;;;;;;;;;;21.50;83.60;;;;;;5136133;27;19916;-59
2023/03/30 03:10:17;;;;;;;;;;;21.60;83.40;;;;;;5149798;27;19911;-59
2023/03/30 03:12:43;;;;;;;;;;;21.80;82.90;;;;;;5154905;27;19907;-59
2023/03/30 03:15:10;;;;;;;;;;;22.00;82.60;;;;;;5134718;27;19915;-60
2023/03/30 03:17:35;;;;;;;;;;;22.10;81.90;;;;;;5135513;27;20362;-60
2023/03/30 03:20:04;;;;;;;;;;;22.20;81.90;;;;;;5135833;27;19923;-60
2023/03/30 03:22:30;;;;;;;;;;;22.20;81.70;;;;;;5132752;27;19957;-60
2023/03/30 03:24:56;;;;;;;;;;;22.20;81.60;;;;;;5117444;27;19904;-60
2023/03/30 03:27:21;;;;;;;;;;;22.10;81.90;;;;;;5115487;27;20272;-59
2023/03/30 03:29:48;;;;;;;;;;;22.10;82.00;;;;;;5133962;27;19953;-59
2023/03/30 03:32:14;;;;;;;;;;;22.00;82.10;;;;;;5133176;27;19916;-59
2023/03/30 03:34:43;;;;;;;;;;;21.90;82.00;;;;;;5134384;27;19907;-59
2023/03/30 03:37:09;;;;;;;;;;;21.80;82.50;;;;;;5140332;27;19919;-60
2023/03/30 03:39:36;;;;;;;;;;;21.80;82.70;;;;;;5138811;27;19919;-60
2023/03/30 03:42:01;;;;;;;;;;;21.70;82.90;;;;;;5156135;27;19926;-60
2023/03/30 03:44:27;;;;;;;;;;;21.70;83.20;;;;;;5144093;27;20269;-59
2023/03/30 03:46:52;;;;;;;;;;;21.60;83.10;;;;;;5133972;27;19925;-59
2023/03/30 03:49:18;;;;;;;;;;;21.60;83.00;;;;;;5135278;27;19998;-60
2023/03/30 03:51:43;;;;;;;;;;;21.60;83.20;;;;;;5135144;27;20364;-60
2023/03/30 03:54:09;;;;;;;;;;;21.70;83.20;;;;;;5133091;27;19911;-59
2023/03/30 03:56:34;;;;;;;;;;;21.80;83.30;;;;;;5134097;27;19960;-59
2023/03/30 03:59:02;;;;;;;;;;;21.90;83.10;;;;;;5133852;27;19919;-60
2023/03/30 04:01:28;;;;;;;;;;;22.10;82.70;;;;;;5133595;27;19908;-60
2023/03/30 04:03:54;;;;;;;;;;;22.20;82.30;;;;;;5135383;27;20246;-60
2023/03/30 04:06:19;;;;;;;;;;;22.30;82.00;;;;;;5134799;27;20010;-60
2023/03/30 04:08:45;;;;;;;;;;;22.30;81.50;;;;;;5134976;27;19918;-60
2023/03/30 04:11:11;;;;;;;;;;;22.30;81.80;;;;;;5134084;28;19922;-60
2023/03/30 04:13:37;;;;;;;;;;;22.20;81.90;;;;;;5115814;28;20006;-60
2023/03/30 04:16:03;;;;;;;;;;;22.10;82.00;;;;;;5134660;28;20325;-60
2023/03/30 04:18:32;;;;;;;;;;;22.10;82.10;;;;;;5134418;28;19985;-60
2023/03/30 04:21:01;;;;;;;;;;;22.00;82.30;;;;;;5114467;28;19919;-60
2023/03/30 04:23:30;;;;;;;;;;;21.90;82.40;;;;;;5132486;28;20416;-60
2023/03/30 04:26:00;;;;;;;;;;;21.80;82.40;;;;;;5134445;28;19918;-60
2023/03/30 04:28:28;;;;;;;;;;;21.80;82.70;;;;;;5116513;28;19964;-60
2023/03/30 04:31:03;;;;;;;;;;;21.70;82.40;;;;;;5134932;28;19911;-60
2023/03/30 04:33:29;;;;;;;;;;;21.70;82.80;;;;;;5133410;28;19998;-60
2023/03/30 04:35:55;;;;;;;;;;;21.70;82.90;;;;;;5134812;28;20358;-60
2023/03/30 04:38:23;;;;;;;;;;;21.70;83.20;;;;;;5134976;28;19950;-60
2023/03/30 04:40:49;;;;;;;;;;;21.70;83.00;;;;;;5116070;28;19911;-60
2023/03/30 04:43:18;;;;;;;;;;;21.80;82.80;;;;;;5133792;28;19911;-59
2023/03/30 04:45:54;;;;;;;;;;;22.00;82.60;;;;;;5134733;28;19998;-59
2023/03/30 04:48:20;;;;;;;;;;;22.10;82.30;;;;;;5132738;28;20001;-60
2023/03/30 04:50:48;;;;;;;;;;;22.20;82.00;;;;;;5132672;28;19978;-59
2023/03/30 04:53:16;;;;;;;;;;;22.20;81.70;;;;;;5130983;28;20303;-60
2023/03/30 04:55:42;;;;;;;;;;;22.20;81.70;;;;;;5114031;28;19953;-59
2023/03/30 04:58:10;;;;;;;;;;;22.10;81.70;;;;;;5113912;28;19908;-60
2023/03/30 05:00:36;;;;;;;;;;;22.10;82.00;;;;;;5132223;28;19912;-60
2023/03/30 05:03:02;;;;;;;;;;;22.00;82.20;;;;;;5131651;28;20684;-60
2023/03/30 05:05:27;;;;;;;;;;;21.90;82.50;;;;;;5133995;28;19911;-60
2023/03/30 05:07:53;;;;;;;;;;;21.90;82.70;;;;;;5136383;27;19950;-59
2023/03/30 05:10:18;;;;;;;;;;;21.80;82.60;;;;;;5138040;27;19907;-60
2023/03/30 05:12:44;;;;;;;;;;;21.70;82.90;;;;;;5137910;27;19955;-60
2023/03/30 05:15:10;;;;;;;;;;;21.70;83.20;;;;;;5137688;27;19912;-60
2023/03/30 05:17:37;;;;;;;;;;;21.60;83.20;;;;;;5138080;27;19915;-59
2023/03/30 05:20:07;;;;;;;;;;;21.60;83.30;;;;;;5119422;27;19918;-59
2023/03/30 05:22:32;;;;;;;;;;;21.60;83.60;;;;;;5136366;27;19936;-59
2023/03/30 05:24:58;;;;;;;;;;;21.60;83.50;;;;;;5119133;27;19911;-59
2023/03/30 05:27:23;;;;;;;;;;;21.70;83.20;;;;;;5119243;27;19923;-60
2023/03/30 05:29:49;;;;;;;;;;;21.90;82.90;;;;;;5137486;27;19907;-59
2023/03/30 05:32:14;;;;;;;;;;;22.00;82.50;;;;;;5118666;27;19990;-60
2023/03/30 05:34:40;;;;;;;;;;;22.10;82.20;;;;;;5137376;27;19907;-60
2023/03/30 05:37:06;;;;;;;;;;;22.10;81.80;;;;;;5137287;27;19914;-60
2023/03/30 05:39:31;;;;;;;;;;;22.20;81.90;;;;;;5137363;27;19912;-59
2023/03/30 05:41:56;;;;;;;;;;;22.10;81.90;;;;;;5117635;27;19927;-60
2023/03/30 05:44:22;;;;;;;;;;;22.00;81.90;;;;;;5136708;27;20082;-59
2023/03/30 05:46:47;;;;;;;;;;;22.00;82.20;;;;;;5136839;27;19908;-60
2023/03/30 05:49:13;;;;;;;;;;;21.90;83.00;;;;;;5119043;27;19911;-60
2023/03/30 05:51:38;;;;;;;;;;;21.80;82.40;;;;;;5137564;27;19932;-60
2023/03/30 05:54:04;;;;;;;;;;;21.80;82.80;;;;;;5135655;27;19911;-60
2023/03/30 05:56:30;;;;;;;;;;;21.70;82.90;;;;;;5136634;27;19908;-60
2023/03/30 05:58:55;;;;;;;;;;;21.60;83.20;;;;;;5136888;27;19922;-59
2023/03/30 06:01:20;;;;;;;;;;;21.60;83.20;;;;;;5136777;27;19929;-60
2023/03/30 06:03:46;;;;;;;;;;;21.60;83.40;;;;;;5136300;27;19918;-60
2023/03/30 06:06:12;;;;;;;;;;;21.60;83.40;;;;;;5136893;27;19907;-59
2023/03/30 06:08:38;;;;;;;;;;;21.60;83.50;;;;;;5136936;27;20429;-60
2023/03/30 06:11:03;;;;;;;;;;;21.60;83.30;;;;;;5137178;27;19930;-60
2023/03/30 06:13:29;;;;;;;;;;;21.60;83.30;;;;;;5135633;27;19924;-60
2023/03/30 06:15:54;;;;;;;;;;;21.70;83.40;;;;;;5136592;27;20350;-60
2023/03/30 06:18:20;;;;;;;;;;;21.70;83.30;;;;;;5135963;27;20326;-60
2023/03/30 06:20:46;;;;;;;;;;;21.70;83.20;;;;;;5135848;27;19907;-60
2023/03/30 06:23:12;;;;;;;;;;;21.70;83.20;;;;;;5117173;27;20362;-60
2023/03/30 06:25:37;;;;;;;;;;;21.70;83.00;;;;;;5136644;27;19908;-60
2023/03/30 06:28:03;;;;;;;;;;;21.70;82.90;;;;;;5136952;27;20277;-60
2023/03/30 06:30:28;;;;;;;;;;;21.70;82.80;;;;;;5136421;27;19911;-60
2023/03/30 06:32:54;;;;;;;;;;;21.80;83.10;;;;;;5135440;27;19911;-60
2023/03/30 06:35:20;;;;;;;;;;;21.90;82.90;;;;;;5136077;27;20288;-60
2023/03/30 06:37:45;;;;;;;;;;;21.90;82.40;;;;;;5117778;27;20364;-60
2023/03/30 06:40:12;;;;;;;;;;;22.00;82.40;;;;;;5117402;27;19969;-60
2023/03/30 06:42:42;;;;;;;;;;;22.10;82.30;;;;;;5135302;27;19926;-60
2023/03/30 06:45:09;;;;;;;;;;;22.10;82.40;;;;;;5136296;27;19918;-60
2023/03/30 06:47:35;;;;;;;;;;;22.00;82.50;;;;;;5136193;27;20331;-60
2023/03/30 06:50:00;;;;;;;;;;;22.00;82.50;;;;;;5136530;27;20280;-60
2023/03/30 06:52:26;;;;;;;;;;;22.00;82.50;;;;;;5135256;27;19907;-60
2023/03/30 06:54:51;;;;;;;;;;;21.90;82.50;;;;;;5135980;27;20002;-60
2023/03/30 06:57:16;;;;;;;;;;;21.80;82.60;;;;;;5135532;27;19908;-60
2023/03/30 06:59:42;;;;;;;;;;;21.80;83.10;;;;;;5135819;27;20399;-60
2023/03/30 07:02:12;;;;;;;;;;;21.70;83.00;;;;;;5135288;27;19914;-60
2023/03/30 07:04:37;;;;;;;;;;;21.70;83.20;;;;;;5117508;27;19912;-60
2023/03/30 07:07:03;;;;;;;;;;;21.70;83.40;;;;;;5134906;27;19911;-60
2023/03/30 07:09:28;;;;;;;;;;;21.60;83.30;;;;;;5135559;27;20015;-60
2023/03/30 07:11:54;;;;;;;;;;;21.60;83.30;;;;;;5135936;27;19914;-60
2023/03/30 07:14:19;;;;;;;;;;;21.60;83.10;;;;;;5135339;27;19911;-60
2023/03/30 07:16:47;;;;;;;;;;;21.70;83.90;;;;;;5135610;27;20293;-60
2023/03/30 07:19:12;;;;;;;;;;;21.80;83.10;;;;;;5135384;27;19938;-60
2023/03/30 07:21:38;;;;;;;;;;;21.90;83.10;;;;;;5134055;27;20354;-60
2023/03/30 07:24:03;;;;;;;;;;;22.00;82.60;;;;;;5117147;27;19927;-60
2023/03/30 07:26:29;;;;;;;;;;;22.20;82.10;;;;;;5117227;27;19942;-60
2023/03/30 07:28:55;;;;;;;;;;;22.30;81.90;;;;;;5117184;27;19907;-60
2023/03/30 07:31:22;;;;;;;;;;;22.40;81.60;;;;;;5132444;27;20231;-60
2023/03/30 07:33:47;;;;;;;;;;;22.40;81.20;;;;;;5134281;27;19911;-60
2023/03/30 07:36:13;;;;;;;;;;;22.40;81.80;;;;;;5134548;27;19911;-60
2023/03/30 07:38:39;;;;;;;;;;;22.30;81.90;;;;;;5144845;27;20293;-62
2023/03/30 07:41:11;;;;;;;;;;;22.20;81.90;;;;;;5132503;27;19927;-62
2023/03/30 07:43:39;;;;;;;;;;;22.20;82.20;;;;;;5134714;27;19911;-62
2023/03/30 07:46:04;;;;;;;;;;;22.10;82.30;;;;;;5133875;27;19918;-64
2023/03/30 07:48:30;;;;;;;;;;;22.10;82.50;;;;;;5115606;27;20002;-63
2023/03/30 07:51:14;;;;;;;;;;;22.00;82.70;;;;;;5130782;27;19924;-63
2023/03/30 07:53:40;;;;;;;;;;;21.90;82.70;;;;;;5137966;27;19986;-64
2023/03/30 07:56:06;;;;;;;;;;;21.80;82.90;;;;;;5136166;27;19911;-64
2023/03/30 07:58:32;;;;;;;;;;;21.80;83.00;;;;;;5132751;27;19945;-62
2023/03/30 08:00:58;;;;;;;;;;;21.90;83.50;;;;;;5132836;27;19918;-63
2023/03/30 08:03:23;;;;;;;;;;;21.90;82.60;;;;;;5133548;27;19931;-63
2023/03/30 08:05:53;;;;;;;;;;;22.00;82.70;;;;;;5131233;27;19945;-65
2023/03/30 08:08:18;;;;;;;;;;;22.10;82.70;;;;;;5116692;28;20305;-62
2023/03/30 08:10:44;;;;;;;;;;;22.20;82.30;;;;;;5133841;27;19963;-64
2023/03/30 08:13:11;;;;;;;;;;;22.40;81.90;;;;;;5115907;28;19919;-64
2023/03/30 08:15:36;;;;;;;;;;;22.40;81.90;;;;;;5131989;28;19934;-62
2023/03/30 08:18:05;;;;;;;;;;;22.40;81.80;;;;;;5115737;28;20346;-62
2023/03/30 08:20:32;;;;;;;;;;;22.40;82.00;;;;;;5115505;28;19916;-62
2023/03/30 08:22:57;;;;;;;;;;;22.30;81.90;;;;;;5116575;28;19908;-60
2023/03/30 08:25:23;;;;;;;;;;;22.30;82.00;;;;;;5116327;28;19911;-60
2023/03/30 08:27:48;;;;;;;;;;;22.20;82.10;;;;;;5134825;28;19916;-60
2023/03/30 08:30:15;;;;;;;;;;;22.10;82.30;;;;;;5134796;28;19953;-60
2023/03/30 08:32:40;;;;;;;;;;;22.00;82.20;;;;;;5130299;28;19934;-61
2023/03/30 08:35:06;;;;;;;;;;;22.00;83.00;;;;;;5125985;28;19911;-61
2023/03/30 08:37:31;;;;;;;;;;;21.90;82.50;;;;;;5131417;28;19911;-61
2023/03/30 08:39:57;;;;;;;;;;;21.80;82.90;;;;;;5131436;28;20010;-66
2023/03/30 08:42:29;;;;;;;;;;;21.70;82.80;;;;;;5130634;27;20035;-65
2023/03/30 08:44:56;;;;;;;;;;;21.70;83.00;;;;;;5138082;27;19914;-66
2023/03/30 08:47:28;;;;;;;;;;;21.70;83.10;;;;;;5122384;27;20015;-66
2023/03/30 08:50:02;;;;;;;;;;;21.70;83.30;;;;;;5137641;27;19916;-66
2023/03/30 08:52:29;;;;;;;;;;;21.70;83.20;;;;;;5138168;27;20350;-65
2023/03/30 08:54:56;;;;;;;;;;;21.80;83.20;;;;;;5130300;27;19998;-65
2023/03/30 08:57:36;;;;;;;;;;;21.80;76.30;;;;;;5134577;27;19953;-66
2023/03/30 09:00:11;;;;;;;;;;;21.70;74.70;;;;;;5119598;27;19926;-65
2023/03/30 09:02:41;;;;;;;;;;;21.60;75.30;;;;;;5135899;27;20377;-60
2023/03/30 09:05:14;;;;;;;;;;;21.50;75.40;;;;;;5136987;27;20358;-63
2023/03/30 09:08:00;;;;;;;;;;;21.40;75.70;;;;;;5136921;27;19947;-63
2023/03/30 09:10:27;;;;;;;;;;;21.30;76.00;;;;;;5119223;27;19920;-62
2023/03/30 09:12:57;;;;;;;;;;;21.20;76.20;;;;;;5134448;27;19911;-65
2023/03/30 09:15:22;;;;;;;;;;;21.10;76.90;;;;;;5137157;27;19942;-64
2023/03/30 09:18:07;;;;;;;;;;;21.10;78.00;;;;;;5118575;27;20341;-64
2023/03/30 09:20:33;;;;;;;;;;;21.20;78.80;;;;;;5134805;27;19946;-64
2023/03/30 09:23:00;;;;;;;;;;;21.30;79.70;;;;;;5137690;27;19954;-63
2023/03/30 09:25:33;;;;;;;;;;;21.30;80.00;;;;;;5135564;27;19918;-61
2023/03/30 09:28:17;;;;;;;;;;;21.40;80.30;;;;;;5131840;27;20366;-62
2023/03/30 09:30:55;;;;;;;;;;;21.40;80.40;;;;;;5136268;27;19990;-61
2023/03/30 09:33:26;;;;;;;;;;;21.50;80.50;;;;;;5135577;27;19915;-62
2023/03/30 09:36:02;;;;;;;;;;;21.50;80.40;;;;;;5136606;27;20288;-60
2023/03/30 09:38:29;;;;;;;;;;;21.60;80.50;;;;;;5135118;27;19966;-61
2023/03/30 09:41:06;;;;;;;;;;;21.70;80.60;;;;;;5135064;27;20288;-62
2023/03/30 09:43:33;;;;;;;;;;;21.80;80.40;;;;;;5132931;27;19911;-62
2023/03/30 09:46:00;;;;;;;;;;;21.90;80.10;;;;;;5144326;27;20266;-61
2023/03/30 09:48:26;;;;;;;;;;;22.10;79.80;;;;;;5133461;27;20358;-62
2023/03/30 09:50:51;;;;;;;;;;;22.20;79.60;;;;;;5136113;27;19918;-61
2023/03/30 09:53:19;;;;;;;;;;;22.20;79.40;;;;;;5132811;27;19911;-60
2023/03/30 09:55:59;;;;;;;;;;;22.20;79.50;;;;;;5133273;27;19915;-72
2023/03/30 09:58:29;;;;;;;;;;;22.20;79.70;;;;;;5135524;27;19928;-69
2023/03/30 10:01:15;;;;;;;;;;;22.10;79.70;;;;;;5117374;27;19940;-69
2023/03/30 10:03:42;;;;;;;;;;;22.10;80.10;;;;;;5133806;27;19911;-68
2023/03/30 10:06:17;;;;;;;;;;;22.00;80.20;;;;;;5133154;27;20044;-73
2023/03/30 10:08:48;;;;;;;;;;;22.00;80.40;;;;;;5128478;27;19911;-74
2023/03/30 10:11:18;;;;;;;;;;;21.90;80.60;;;;;;5138803;27;20377;-78
2023/03/30 10:13:44;;;;;;;;;;;21.80;80.80;;;;;;5157827;27;19918;-73
2023/03/30 10:16:16;;;;;;;;;;;21.80;81.00;;;;;;5157944;27;19907;-72
2023/03/30 10:18:43;;;;;;;;;;;21.70;81.20;;;;;;5118797;27;20010;-72
2023/03/30 10:21:11;;;;;;;;;;;21.70;81.40;;;;;;5136590;27;19912;-68
2023/03/30 10:23:43;;;;;;;;;;;21.60;81.50;;;;;;5136829;27;19908;-71
2023/03/30 10:26:18;;;;;;;;;;;21.60;81.90;;;;;;5127721;27;20002;-67
2023/03/30 10:28:53;;;;;;;;;;;21.60;81.90;;;;;;5135494;27;19954;-67
2023/03/30 10:31:19;;;;;;;;;;;21.50;82.10;;;;;;5136677;27;19916;-68
2023/03/30 10:33:44;;;;;;;;;;;21.50;82.30;;;;;;5136774;27;19914;-66
2023/03/30 10:36:12;;;;;;;;;;;21.50;82.40;;;;;;5118251;27;20307;-72
2023/03/30 10:38:39;;;;;;;;;;;21.40;82.50;;;;;;5117356;27;19919;-71
2023/03/30 10:41:23;;;;;;;;;;;21.40;82.70;;;;;;5110067;28;19927;-70
2023/03/30 10:43:49;;;;;;;;;;;21.30;82.70;;;;;;5095700;28;19908;-77
2023/03/30 10:46:21;;;;;;;;;;;21.30;82.90;;;;;;5095836;28;19931;-79
2023/03/30 10:48:46;;;;;;;;;;;21.30;82.90;;;;;;5094741;28;19918;-72
2023/03/30 10:51:30;;;;;;;;;;;21.20;83.10;;;;;;5095280;28;19999;-74
2023/03/30 10:54:04;;;;;;;;;;;21.20;83.30;;;;;;5095355;28;19908;-69
2023/03/30 10:56:34;;;;;;;;;;;21.10;83.40;;;;;;5095101;28;19908;-72
2023/03/30 10:58:59;;;;;;;;;;;21.10;83.50;;;;;;5094374;28;19924;-73
2023/03/30 11:01:25;;;;;;;;;;;21.10;83.60;;;;;;5095193;28;20208;-69
2023/03/30 11:03:57;;;;;;;;;;;21.00;83.70;;;;;;5093839;28;20263;-73
2023/03/30 11:06:31;;;;;;;;;;;21.10;83.80;;;;;;5094815;28;20011;-71
2023/03/30 11:08:59;;;;;;;;;;;21.00;83.80;;;;;;5093388;28;19920;-80
2023/03/30 11:11:33;;;;;;;;;;;21.00;84.00;;;;;;5093924;28;19978;-72
2023/03/30 11:14:03;;;;;;;;;;;21.00;84.00;;;;;;5094867;28;19954;-73
2023/03/30 11:16:31;;;;;;;;;;;21.00;84.10;;;;;;5094784;28;19911;-67
2023/03/30 11:19:19;;;;;;;;;;;20.90;84.20;;;;;;5093582;28;20387;-75
2023/03/30 11:21:49;;;;;;;;;;;20.90;84.20;;;;;;5094598;28;19912;-69
2023/03/30 11:24:20;;;;;;;;;;;20.90;84.20;;;;;;5094690;28;20284;-70
2023/03/30 11:27:09;;;;;;;;;;;20.90;84.40;;;;;;5094412;28;20359;-68
2023/03/30 11:29:42;;;;;;;;;;;20.80;84.40;;;;;;5086140;28;19916;-70
2023/03/30 11:32:26;;;;;;;;;;;20.80;84.50;;;;;;5093532;28;19914;-68
2023/03/30 11:34:55;;;;;;;;;;;20.80;84.50;;;;;;5093212;28;19908;-67
2023/03/30 11:37:26;;;;;;;;;;;20.80;84.60;;;;;;5093707;28;19915;-65
2023/03/30 11:40:01;;;;;;;;;;;20.80;84.60;;;;;;5094485;28;19969;-67
2023/03/30 11:42:28;;;;;;;;;;;20.70;84.70;;;;;;5126500;27;19927;-65
2023/03/30 11:44:54;;;;;;;;;;;20.70;84.70;;;;;;5138699;27;19912;-68
2023/03/30 11:47:28;;;;;;;;;;;20.70;84.80;;;;;;5138866;27;19911;-65
2023/03/30 11:50:06;;;;;;;;;;;20.60;81.20;;;;;;5132868;27;20006;-64
2023/03/30 11:52:31;;;;;;;;;;;20.60;83.90;;;;;;5114103;28;19915;-63
2023/03/30 11:55:16;;;;;;;;;;;20.70;84.50;;;;;;5133741;27;19912;-64
2023/03/30 11:58:00;;;;;;;;;;;20.60;84.60;;;;;;5121388;27;20340;-64
2023/03/30 12:00:32;;;;;;;;;;;20.60;84.60;;;;;;5128319;27;19927;-68
2023/03/30 12:03:04;;;;;;;;;;;20.60;84.60;;;;;;5129987;27;19957;-72
2023/03/30 12:05:35;;;;;;;;;;;20.60;84.50;;;;;;5127078;27;19984;-72
2023/03/30 12:08:10;;;;;;;;;;;20.60;84.60;;;;;;5135477;27;19930;-77
2023/03/30 12:10:42;;;;;;;;;;;20.60;84.60;;;;;;5134136;27;19919;-79
2023/03/30 12:13:12;;;;;;;;;;;20.60;84.60;;;;;;5134973;28;19918;-82
2023/03/30 12:15:56;;;;;;;;;;;20.60;84.70;;;;;;5135183;28;19907;-78
2023/03/30 12:18:21;;;;;;;;;;;20.50;84.70;;;;;;5131774;28;20024;-72
2023/03/30 12:20:53;;;;;;;;;;;20.50;84.80;;;;;;5133395;28;20338;-71
2023/03/30 12:23:33;;;;;;;;;;;20.50;84.70;;;;;;5132769;28;19912;-71
2023/03/30 12:26:05;;;;;;;;;;;20.50;84.80;;;;;;5134718;28;20006;-71
2023/03/30 12:28:50;;;;;;;;;;;20.50;84.90;;;;;;5113553;28;19946;-68
2023/03/30 12:31:16;;;;;;;;;;;20.40;84.80;;;;;;5120941;28;19972;-66
2023/03/30 12:33:48;;;;;;;;;;;20.40;84.80;;;;;;5123841;28;20282;-69
2023/03/30 12:36:25;;;;;;;;;;;20.40;84.90;;;;;;5131390;28;19916;-68
2023/03/30 12:38:51;;;;;;;;;;;20.40;84.90;;;;;;5113629;28;19919;-68
2023/03/30 12:41:19;;;;;;;;;;;20.40;84.90;;;;;;5130464;28;20429;-68
2023/03/30 12:43:50;;;;;;;;;;;20.40;84.80;;;;;;5131239;28;19961;-68
2023/03/30 12:46:24;;;;;;;;;;;20.40;84.90;;;;;;5141084;27;20003;-65
2023/03/30 12:48:56;;;;;;;;;;;20.30;84.80;;;;;;5115202;28;19922;-66
2023/03/30 12:51:21;;;;;;;;;;;20.30;84.80;;;;;;5132566;28;19911;-68
2023/03/30 12:54:07;;;;;;;;;;;20.30;84.80;;;;;;5131895;28;19937;-66
2023/03/30 12:56:35;;;;;;;;;;;20.30;84.80;;;;;;5125373;28;19907;-67
2023/03/30 12:59:04;;;;;;;;;;;20.30;84.80;;;;;;5131291;28;20435;-67
2023/03/30 13:01:35;;;;;;;;;;;20.30;84.80;;;;;;5132528;28;19918;-68
2023/03/30 13:04:03;;;;;;;;;;;20.30;84.80;;;;;;5114995;28;19977;-68
2023/03/30 13:06:36;;;;;;;;;;;20.20;84.70;;;;;;5131870;28;19964;-68
2023/03/30 13:09:11;;;;;;;;;;;20.30;84.80;;;;;;5131785;28;21360;-68
2023/03/30 13:12:05;;;;;;;;;;;20.30;84.80;;;;;;5132656;28;20002;-71
2023/03/30 13:14:34;;;;;;;;;;;20.20;84.60;;;;;;5132966;27;19912;-68
2023/03/30 13:17:02;;;;;;;;;;;20.20;84.70;;;;;;5135386;27;19912;-71
2023/03/30 13:19:27;;;;;;;;;;;20.20;84.80;;;;;;5134129;28;19915;-66
2023/03/30 13:21:56;;;;;;;;;;;20.20;84.80;;;;;;5134331;28;19918;-66
2023/03/30 13:24:37;;;;;;;;;;;20.20;84.90;;;;;;5114898;28;19912;-66
2023/03/30 13:27:29;;;;;;;;;;;20.20;84.90;;;;;;5133625;28;20006;-77
2023/03/30 13:30:02;;;;;;;;;;;20.10;84.90;;;;;;5134592;27;19911;-71
2023/03/30 13:32:35;;;;;;;;;;;20.10;85.10;;;;;;5138064;27;20342;-72
2023/03/30 13:35:07;;;;;;;;;;;20.10;85.20;;;;;;5135377;27;19919;-74
2023/03/30 13:37:51;;;;;;;;;;;20.10;85.20;;;;;;5138165;27;19950;-70
2023/03/30 13:40:25;;;;;;;;;;;20.20;85.30;;;;;;5137675;27;19915;-69
2023/03/30 13:43:11;;;;;;;;;;;20.20;85.30;;;;;;5118880;27;19919;-67
2023/03/30 13:45:39;;;;;;;;;;;20.20;85.30;;;;;;5138816;27;20007;-76
2023/03/30 13:48:08;;;;;;;;;;;20.20;85.40;;;;;;5137502;27;19908;-69
2023/03/30 13:50:34;;;;;;;;;;;20.20;85.40;;;;;;5119086;27;20403;-68
2023/03/30 13:53:00;;;;;;;;;;;20.10;85.30;;;;;;5137500;27;19930;-70
2023/03/30 13:55:26;;;;;;;;;;;20.10;85.30;;;;;;5135901;27;19912;-69
2023/03/30 13:57:54;;;;;;;;;;;20.10;85.40;;;;;;5136876;27;19911;-71
2023/03/30 14:00:38;;;;;;;;;;;20.20;85.50;;;;;;5137345;27;19922;-71
2023/03/30 14:03:22;;;;;;;;;;;20.10;85.50;;;;;;5137242;27;19911;-74
2023/03/30 14:05:48;;;;;;;;;;;20.10;85.40;;;;;;5135536;27;19911;-76
2023/03/30 14:08:16;;;;;;;;;;;20.10;85.40;;;;;;5137599;27;19919;-75
2023/03/30 14:10:45;;;;;;;;;;;20.10;85.50;;;;;;5118825;27;19908;-72
2023/03/30 14:13:10;;;;;;;;;;;20.10;85.40;;;;;;5136461;27;19958;-76
2023/03/30 14:15:37;;;;;;;;;;;20.10;85.50;;;;;;5118660;27;20366;-68
2023/03/30 14:18:04;;;;;;;;;;;20.10;85.50;;;;;;5136957;27;19998;-68
2023/03/30 14:20:36;;;;;;;;;;;20.10;85.60;;;;;;5136531;27;19922;-70
2023/03/30 14:23:02;;;;;;;;;;;20.10;85.60;;;;;;5135902;27;19911;-71
2023/03/30 14:25:28;;;;;;;;;;;20.10;85.60;;;;;;5136766;27;19907;-69
2023/03/30 14:28:01;;;;;;;;;;;20.10;85.60;;;;;;5136940;27;20013;-69
2023/03/30 14:30:30;;;;;;;;;;;20.10;85.60;;;;;;5136410;27;20410;-71